sensor_id;sensor_type;location;lat;lon;timestamp;P1;durP1;ratioP1;P2;durP2;ratioP2
38851;SDS011;24605;50.092;9.182;2023-08-08T00:00:11;5.53;;;2.55;;
38851;SDS011;24605;50.092;9.182;2023-08-08T00:02:42;4.13;;;2.20;;
38851;SDS011;24605;50.092;9.182;2023-08-08T00:05:08;5.00;;;2.65;;
38851;SDS011;24605;50.092;9.182;2023-08-08T00:07:35;6.53;;;2.65;;
38851;SDS011;24605;50.092;9.182;2023-08-08T00:10:01;4.57;;;2.47;;
38851;SDS011;24605;50.092;9.182;2023-08-08T00:12:28;5.25;;;2.85;;
38851;SDS011;24605;50.092;9.182;2023-08-08T00:14:55;5.75;;;2.60;;
38851;SDS011;24605;50.092;9.182;2023-08-08T00:17:21;5.68;;;2.38;;
38851;SDS011;24605;50.092;9.182;2023-08-08T00:19:49;6.97;;;2.60;;
38851;SDS011;24605;50.092;9.182;2023-08-08T00:22:16;7.03;;;2.35;;
38851;SDS011;24605;50.092;9.182;2023-08-08T00:24:42;4.55;;;2.75;;
38851;SDS011;24605;50.092;9.182;2023-08-08T00:27:08;4.32;;;2.20;;
38851;SDS011;24605;50.092;9.182;2023-08-08T00:29:35;6.32;;;2.55;;
38851;SDS011;24605;50.092;9.182;2023-08-08T00:32:01;5.25;;;2.88;;
38851;SDS011;24605;50.092;9.182;2023-08-08T00:34:28;6.05;;;2.50;;
38851;SDS011;24605;50.092;9.182;2023-08-08T00:36:56;4.80;;;2.53;;
38851;SDS011;24605;50.092;9.182;2023-08-08T00:39:22;3.95;;;2.42;;
38851;SDS011;24605;50.092;9.182;2023-08-08T00:41:49;5.28;;;2.45;;
38851;SDS011;24605;50.092;9.182;2023-08-08T00:44:15;4.85;;;2.22;;
38851;SDS011;24605;50.092;9.182;2023-08-08T00:46:42;5.68;;;2.63;;
38851;SDS011;24605;50.092;9.182;2023-08-08T00:49:08;5.80;;;2.28;;
38851;SDS011;24605;50.092;9.182;2023-08-08T00:51:35;6.45;;;2.58;;
38851;SDS011;24605;50.092;9.182;2023-08-08T00:54:03;5.00;;;2.25;;
38851;SDS011;24605;50.092;9.182;2023-08-08T00:56:30;4.85;;;2.50;;
38851;SDS011;24605;50.092;9.182;2023-08-08T00:58:57;4.07;;;2.50;;
38851;SDS011;24605;50.092;9.182;2023-08-08T01:01:24;4.05;;;2.38;;
38851;SDS011;24605;50.092;9.182;2023-08-08T01:03:51;7.13;;;2.90;;
38851;SDS011;24605;50.092;9.182;2023-08-08T01:06:19;6.18;;;2.97;;
38851;SDS011;24605;50.092;9.182;2023-08-08T01:08:53;4.75;;;2.60;;
38851;SDS011;24605;50.092;9.182;2023-08-08T01:11:25;6.35;;;2.50;;
38851;SDS011;24605;50.092;9.182;2023-08-08T01:13:55;6.25;;;2.75;;
38851;SDS011;24605;50.092;9.182;2023-08-08T01:16:22;6.70;;;2.75;;
38851;SDS011;24605;50.092;9.182;2023-08-08T01:18:51;5.65;;;2.65;;
38851;SDS011;24605;50.092;9.182;2023-08-08T01:21:19;5.15;;;2.55;;
38851;SDS011;24605;50.092;9.182;2023-08-08T01:23:46;5.18;;;2.60;;
38851;SDS011;24605;50.092;9.182;2023-08-08T01:26:23;8.15;;;3.03;;
38851;SDS011;24605;50.092;9.182;2023-08-08T01:28:52;4.68;;;2.55;;
38851;SDS011;24605;50.092;9.182;2023-08-08T01:31:19;5.55;;;2.75;;
38851;SDS011;24605;50.092;9.182;2023-08-08T01:33:46;5.80;;;2.85;;
38851;SDS011;24605;50.092;9.182;2023-08-08T01:36:13;7.20;;;3.17;;
38851;SDS011;24605;50.092;9.182;2023-08-08T01:38:46;4.07;;;2.35;;
38851;SDS011;24605;50.092;9.182;2023-08-08T01:41:17;8.82;;;2.75;;
38851;SDS011;24605;50.092;9.182;2023-08-08T01:43:46;5.65;;;2.92;;
38851;SDS011;24605;50.092;9.182;2023-08-08T01:46:14;5.10;;;2.70;;
38851;SDS011;24605;50.092;9.182;2023-08-08T01:48:44;13.20;;;2.92;;
38851;SDS011;24605;50.092;9.182;2023-08-08T01:51:11;7.30;;;3.00;;
38851;SDS011;24605;50.092;9.182;2023-08-08T01:53:37;6.18;;;2.85;;
38851;SDS011;24605;50.092;9.182;2023-08-08T01:56:04;5.07;;;2.40;;
38851;SDS011;24605;50.092;9.182;2023-08-08T01:58:30;5.80;;;2.72;;
38851;SDS011;24605;50.092;9.182;2023-08-08T02:00:59;5.78;;;2.60;;
38851;SDS011;24605;50.092;9.182;2023-08-08T02:03:25;5.30;;;2.50;;
38851;SDS011;24605;50.092;9.182;2023-08-08T02:05:52;4.50;;;2.60;;
38851;SDS011;24605;50.092;9.182;2023-08-08T02:08:19;5.18;;;2.67;;
38851;SDS011;24605;50.092;9.182;2023-08-08T02:10:45;4.22;;;2.55;;
38851;SDS011;24605;50.092;9.182;2023-08-08T02:13:12;7.90;;;2.90;;
38851;SDS011;24605;50.092;9.182;2023-08-08T02:15:38;5.95;;;3.20;;
38851;SDS011;24605;50.092;9.182;2023-08-08T02:18:06;7.35;;;2.65;;
38851;SDS011;24605;50.092;9.182;2023-08-08T02:20:34;5.57;;;3.17;;
38851;SDS011;24605;50.092;9.182;2023-08-08T02:23:00;4.68;;;2.55;;
38851;SDS011;24605;50.092;9.182;2023-08-08T02:25:27;5.78;;;2.83;;
38851;SDS011;24605;50.092;9.182;2023-08-08T02:27:54;6.28;;;2.97;;
38851;SDS011;24605;50.092;9.182;2023-08-08T02:30:20;5.72;;;2.53;;
38851;SDS011;24605;50.092;9.182;2023-08-08T02:32:47;6.30;;;3.03;;
38851;SDS011;24605;50.092;9.182;2023-08-08T02:35:15;5.20;;;2.88;;
38851;SDS011;24605;50.092;9.182;2023-08-08T02:37:41;8.52;;;3.10;;
38851;SDS011;24605;50.092;9.182;2023-08-08T02:40:08;6.00;;;3.00;;
38851;SDS011;24605;50.092;9.182;2023-08-08T02:42:35;5.85;;;2.88;;
38851;SDS011;24605;50.092;9.182;2023-08-08T02:45:02;10.15;;;3.20;;
38851;SDS011;24605;50.092;9.182;2023-08-08T02:47:29;4.82;;;3.03;;
38851;SDS011;24605;50.092;9.182;2023-08-08T02:49:55;5.15;;;2.72;;
38851;SDS011;24605;50.092;9.182;2023-08-08T02:52:23;5.80;;;2.70;;
38851;SDS011;24605;50.092;9.182;2023-08-08T02:54:49;4.53;;;3.00;;
38851;SDS011;24605;50.092;9.182;2023-08-08T02:57:17;4.15;;;2.80;;
38851;SDS011;24605;50.092;9.182;2023-08-08T02:59:43;5.38;;;2.88;;
38851;SDS011;24605;50.092;9.182;2023-08-08T03:02:10;7.22;;;3.17;;
38851;SDS011;24605;50.092;9.182;2023-08-08T03:04:37;7.25;;;2.95;;
38851;SDS011;24605;50.092;9.182;2023-08-08T03:07:03;6.57;;;2.53;;
38851;SDS011;24605;50.092;9.182;2023-08-08T03:09:32;4.93;;;2.85;;
38851;SDS011;24605;50.092;9.182;2023-08-08T03:11:58;6.45;;;2.60;;
38851;SDS011;24605;50.092;9.182;2023-08-08T03:14:25;4.10;;;2.78;;
38851;SDS011;24605;50.092;9.182;2023-08-08T03:16:51;6.78;;;3.15;;
38851;SDS011;24605;50.092;9.182;2023-08-08T03:19:18;5.75;;;2.97;;
38851;SDS011;24605;50.092;9.182;2023-08-08T03:21:44;5.18;;;3.15;;
38851;SDS011;24605;50.092;9.182;2023-08-08T03:24:11;6.43;;;3.33;;
38851;SDS011;24605;50.092;9.182;2023-08-08T03:26:39;7.07;;;2.45;;
38851;SDS011;24605;50.092;9.182;2023-08-08T03:29:05;13.30;;;3.25;;
38851;SDS011;24605;50.092;9.182;2023-08-08T03:31:35;5.55;;;2.50;;
38851;SDS011;24605;50.092;9.182;2023-08-08T03:34:01;5.30;;;2.83;;
38851;SDS011;24605;50.092;9.182;2023-08-08T03:36:28;5.55;;;2.95;;
38851;SDS011;24605;50.092;9.182;2023-08-08T03:38:55;6.55;;;3.00;;
38851;SDS011;24605;50.092;9.182;2023-08-08T03:41:23;5.78;;;3.00;;
38851;SDS011;24605;50.092;9.182;2023-08-08T03:43:51;4.90;;;2.60;;
38851;SDS011;24605;50.092;9.182;2023-08-08T03:46:17;5.57;;;2.75;;
38851;SDS011;24605;50.092;9.182;2023-08-08T03:48:43;5.60;;;2.75;;
38851;SDS011;24605;50.092;9.182;2023-08-08T03:51:10;4.85;;;2.42;;
38851;SDS011;24605;50.092;9.182;2023-08-08T03:53:37;5.25;;;2.40;;
38851;SDS011;24605;50.092;9.182;2023-08-08T03:56:03;4.68;;;2.30;;
38851;SDS011;24605;50.092;9.182;2023-08-08T03:58:30;8.43;;;3.78;;
38851;SDS011;24605;50.092;9.182;2023-08-08T04:00:58;5.70;;;2.28;;
38851;SDS011;24605;50.092;9.182;2023-08-08T04:03:24;3.80;;;2.25;;
38851;SDS011;24605;50.092;9.182;2023-08-08T04:05:51;6.28;;;2.70;;
38851;SDS011;24605;50.092;9.182;2023-08-08T04:08:17;7.72;;;2.42;;
38851;SDS011;24605;50.092;9.182;2023-08-08T04:10:44;4.65;;;2.45;;
38851;SDS011;24605;50.092;9.182;2023-08-08T04:13:13;5.30;;;2.17;;
38851;SDS011;24605;50.092;9.182;2023-08-08T04:15:39;4.00;;;2.10;;
38851;SDS011;24605;50.092;9.182;2023-08-08T04:18:07;4.60;;;2.30;;
38851;SDS011;24605;50.092;9.182;2023-08-08T04:20:33;5.30;;;2.42;;
38851;SDS011;24605;50.092;9.182;2023-08-08T04:23:00;3.55;;;1.95;;
38851;SDS011;24605;50.092;9.182;2023-08-08T04:25:26;3.67;;;2.10;;
38851;SDS011;24605;50.092;9.182;2023-08-08T04:27:53;6.32;;;2.53;;
38851;SDS011;24605;50.092;9.182;2023-08-08T04:30:20;7.05;;;2.38;;
38851;SDS011;24605;50.092;9.182;2023-08-08T04:32:46;5.10;;;2.50;;
38851;SDS011;24605;50.092;9.182;2023-08-08T04:35:14;5.18;;;2.38;;
38851;SDS011;24605;50.092;9.182;2023-08-08T04:37:41;11.07;;;2.78;;
38851;SDS011;24605;50.092;9.182;2023-08-08T04:40:08;4.63;;;2.17;;
38851;SDS011;24605;50.092;9.182;2023-08-08T04:42:36;5.55;;;2.22;;
38851;SDS011;24605;50.092;9.182;2023-08-08T04:45:03;5.15;;;2.03;;
38851;SDS011;24605;50.092;9.182;2023-08-08T04:47:30;5.68;;;2.28;;
38851;SDS011;24605;50.092;9.182;2023-08-08T04:49:56;6.03;;;2.40;;
38851;SDS011;24605;50.092;9.182;2023-08-08T04:52:24;6.07;;;2.22;;
38851;SDS011;24605;50.092;9.182;2023-08-08T04:54:51;4.43;;;2.10;;
38851;SDS011;24605;50.092;9.182;2023-08-08T04:57:17;5.00;;;2.08;;
38851;SDS011;24605;50.092;9.182;2023-08-08T04:59:44;4.13;;;2.20;;
38851;SDS011;24605;50.092;9.182;2023-08-08T05:02:10;4.07;;;1.95;;
38851;SDS011;24605;50.092;9.182;2023-08-08T05:04:36;4.00;;;2.22;;
38851;SDS011;24605;50.092;9.182;2023-08-08T05:07:03;4.93;;;2.15;;
38851;SDS011;24605;50.092;9.182;2023-08-08T05:09:32;3.45;;;2.13;;
38851;SDS011;24605;50.092;9.182;2023-08-08T05:11:58;7.32;;;2.40;;
38851;SDS011;24605;50.092;9.182;2023-08-08T05:14:25;6.18;;;2.05;;
38851;SDS011;24605;50.092;9.182;2023-08-08T05:16:52;4.07;;;2.00;;
38851;SDS011;24605;50.092;9.182;2023-08-08T05:19:18;4.85;;;1.92;;
38851;SDS011;24605;50.092;9.182;2023-08-08T05:21:45;5.07;;;2.35;;
38851;SDS011;24605;50.092;9.182;2023-08-08T05:24:11;6.85;;;2.20;;
38851;SDS011;24605;50.092;9.182;2023-08-08T05:26:39;5.43;;;2.33;;
38851;SDS011;24605;50.092;9.182;2023-08-08T05:29:05;4.53;;;1.65;;
38851;SDS011;24605;50.092;9.182;2023-08-08T05:31:32;5.53;;;1.80;;
38851;SDS011;24605;50.092;9.182;2023-08-08T05:33:58;3.70;;;1.80;;
38851;SDS011;24605;50.092;9.182;2023-08-08T05:36:25;5.07;;;2.00;;
38851;SDS011;24605;50.092;9.182;2023-08-08T05:38:51;7.53;;;1.92;;
38851;SDS011;24605;50.092;9.182;2023-08-08T05:41:18;4.20;;;1.80;;
38851;SDS011;24605;50.092;9.182;2023-08-08T05:43:45;3.40;;;1.90;;
38851;SDS011;24605;50.092;9.182;2023-08-08T05:46:12;3.88;;;1.75;;
38851;SDS011;24605;50.092;9.182;2023-08-08T05:48:38;6.55;;;1.85;;
38851;SDS011;24605;50.092;9.182;2023-08-08T05:51:05;6.47;;;2.03;;
38851;SDS011;24605;50.092;9.182;2023-08-08T05:53:31;5.22;;;2.30;;
38851;SDS011;24605;50.092;9.182;2023-08-08T05:55:58;3.95;;;1.90;;
38851;SDS011;24605;50.092;9.182;2023-08-08T05:58:25;5.53;;;2.00;;
38851;SDS011;24605;50.092;9.182;2023-08-08T06:00:53;4.93;;;2.13;;
38851;SDS011;24605;50.092;9.182;2023-08-08T06:03:19;3.25;;;1.50;;
38851;SDS011;24605;50.092;9.182;2023-08-08T06:05:46;3.65;;;1.80;;
38851;SDS011;24605;50.092;9.182;2023-08-08T06:08:12;5.05;;;1.70;;
38851;SDS011;24605;50.092;9.182;2023-08-08T06:10:41;4.30;;;1.83;;
38851;SDS011;24605;50.092;9.182;2023-08-08T06:13:08;4.28;;;1.75;;
38851;SDS011;24605;50.092;9.182;2023-08-08T06:15:34;3.65;;;1.77;;
38851;SDS011;24605;50.092;9.182;2023-08-08T06:18:02;3.85;;;1.88;;
38851;SDS011;24605;50.092;9.182;2023-08-08T06:20:28;4.45;;;1.58;;
38851;SDS011;24605;50.092;9.182;2023-08-08T06:22:55;3.55;;;1.45;;
38851;SDS011;24605;50.092;9.182;2023-08-08T06:25:21;3.85;;;1.50;;
38851;SDS011;24605;50.092;9.182;2023-08-08T06:27:48;3.95;;;1.40;;
38851;SDS011;24605;50.092;9.182;2023-08-08T06:30:15;3.25;;;1.40;;
38851;SDS011;24605;50.092;9.182;2023-08-08T06:32:41;4.30;;;1.60;;
38851;SDS011;24605;50.092;9.182;2023-08-08T06:35:10;4.32;;;1.58;;
38851;SDS011;24605;50.092;9.182;2023-08-08T06:37:36;7.47;;;1.65;;
38851;SDS011;24605;50.092;9.182;2023-08-08T06:40:03;4.45;;;1.70;;
38851;SDS011;24605;50.092;9.182;2023-08-08T06:42:32;4.03;;;1.92;;
38851;SDS011;24605;50.092;9.182;2023-08-08T06:44:58;4.68;;;1.40;;
38851;SDS011;24605;50.092;9.182;2023-08-08T06:47:25;4.72;;;1.52;;
38851;SDS011;24605;50.092;9.182;2023-08-08T06:49:51;4.80;;;1.80;;
38851;SDS011;24605;50.092;9.182;2023-08-08T06:52:19;4.38;;;1.50;;
38851;SDS011;24605;50.092;9.182;2023-08-08T06:54:45;4.35;;;1.50;;
38851;SDS011;24605;50.092;9.182;2023-08-08T06:57:12;3.92;;;1.83;;
38851;SDS011;24605;50.092;9.182;2023-08-08T06:59:38;6.35;;;1.80;;
38851;SDS011;24605;50.092;9.182;2023-08-08T07:02:05;4.72;;;1.85;;
38851;SDS011;24605;50.092;9.182;2023-08-08T07:04:31;5.47;;;1.75;;
38851;SDS011;24605;50.092;9.182;2023-08-08T07:06:58;6.90;;;1.85;;
38851;SDS011;24605;50.092;9.182;2023-08-08T07:09:26;6.25;;;1.73;;
38851;SDS011;24605;50.092;9.182;2023-08-08T07:11:52;5.47;;;1.92;;
38851;SDS011;24605;50.092;9.182;2023-08-08T07:14:19;5.00;;;1.83;;
38851;SDS011;24605;50.092;9.182;2023-08-08T07:16:45;7.28;;;1.90;;
38851;SDS011;24605;50.092;9.182;2023-08-08T07:19:13;6.03;;;1.60;;
38851;SDS011;24605;50.092;9.182;2023-08-08T07:21:40;5.47;;;1.92;;
38851;SDS011;24605;50.092;9.182;2023-08-08T07:24:07;5.03;;;1.75;;
38851;SDS011;24605;50.092;9.182;2023-08-08T07:26:36;5.25;;;1.63;;
38851;SDS011;24605;50.092;9.182;2023-08-08T07:29:02;4.63;;;1.65;;
38851;SDS011;24605;50.092;9.182;2023-08-08T07:31:31;4.97;;;1.90;;
38851;SDS011;24605;50.092;9.182;2023-08-08T07:33:57;7.55;;;1.73;;
38851;SDS011;24605;50.092;9.182;2023-08-08T07:36:24;4.60;;;1.35;;
38851;SDS011;24605;50.092;9.182;2023-08-08T07:38:51;5.35;;;1.50;;
38851;SDS011;24605;50.092;9.182;2023-08-08T07:41:17;4.47;;;1.38;;
38851;SDS011;24605;50.092;9.182;2023-08-08T07:43:45;2.60;;;1.52;;
38851;SDS011;24605;50.092;9.182;2023-08-08T07:46:11;4.68;;;1.27;;
38851;SDS011;24605;50.092;9.182;2023-08-08T07:48:38;3.65;;;1.50;;
38851;SDS011;24605;50.092;9.182;2023-08-08T07:51:05;4.50;;;1.60;;
38851;SDS011;24605;50.092;9.182;2023-08-08T07:53:31;3.58;;;1.33;;
38851;SDS011;24605;50.092;9.182;2023-08-08T07:55:58;2.72;;;1.15;;
38851;SDS011;24605;50.092;9.182;2023-08-08T07:58:24;2.50;;;1.10;;
38851;SDS011;24605;50.092;9.182;2023-08-08T08:00:53;3.75;;;1.27;;
38851;SDS011;24605;50.092;9.182;2023-08-08T08:03:19;4.25;;;1.20;;
38851;SDS011;24605;50.092;9.182;2023-08-08T08:05:46;4.00;;;1.30;;
38851;SDS011;24605;50.092;9.182;2023-08-08T08:08:13;5.90;;;1.35;;
38851;SDS011;24605;50.092;9.182;2023-08-08T08:10:39;3.35;;;1.35;;
38851;SDS011;24605;50.092;9.182;2023-08-08T08:13:06;3.67;;;1.17;;
38851;SDS011;24605;50.092;9.182;2023-08-08T08:15:33;4.97;;;1.13;;
38851;SDS011;24605;50.092;9.182;2023-08-08T08:18:01;3.67;;;1.30;;
38851;SDS011;24605;50.092;9.182;2023-08-08T08:20:27;5.75;;;1.10;;
38851;SDS011;24605;50.092;9.182;2023-08-08T08:22:53;3.95;;;1.10;;
38851;SDS011;24605;50.092;9.182;2023-08-08T08:25:20;2.53;;;1.27;;
38851;SDS011;24605;50.092;9.182;2023-08-08T08:27:46;4.13;;;1.10;;
38851;SDS011;24605;50.092;9.182;2023-08-08T08:30:13;4.00;;;1.08;;
38851;SDS011;24605;50.092;9.182;2023-08-08T08:32:40;3.55;;;1.13;;
38851;SDS011;24605;50.092;9.182;2023-08-08T08:35:08;3.13;;;1.00;;
38851;SDS011;24605;50.092;9.182;2023-08-08T08:37:37;2.97;;;1.13;;
38851;SDS011;24605;50.092;9.182;2023-08-08T08:40:04;2.25;;;0.88;;
38851;SDS011;24605;50.092;9.182;2023-08-08T08:42:31;2.80;;;1.20;;
38851;SDS011;24605;50.092;9.182;2023-08-08T08:44:58;4.90;;;1.33;;
38851;SDS011;24605;50.092;9.182;2023-08-08T08:47:25;4.47;;;1.30;;
38851;SDS011;24605;50.092;9.182;2023-08-08T08:49:55;4.45;;;1.30;;
38851;SDS011;24605;50.092;9.182;2023-08-08T08:52:24;6.85;;;1.27;;
38851;SDS011;24605;50.092;9.182;2023-08-08T08:54:51;8.32;;;1.55;;
38851;SDS011;24605;50.092;9.182;2023-08-08T08:57:18;3.50;;;1.00;;
38851;SDS011;24605;50.092;9.182;2023-08-08T08:59:45;3.05;;;1.20;;
38851;SDS011;24605;50.092;9.182;2023-08-08T09:02:12;3.65;;;1.50;;
38851;SDS011;24605;50.092;9.182;2023-08-08T09:04:39;4.95;;;1.10;;
38851;SDS011;24605;50.092;9.182;2023-08-08T09:07:06;4.80;;;1.30;;
38851;SDS011;24605;50.092;9.182;2023-08-08T09:09:34;2.53;;;1.10;;
38851;SDS011;24605;50.092;9.182;2023-08-08T09:12:03;3.15;;;1.20;;
38851;SDS011;24605;50.092;9.182;2023-08-08T09:14:30;7.15;;;1.42;;
38851;SDS011;24605;50.092;9.182;2023-08-08T09:16:57;4.00;;;1.25;;
38851;SDS011;24605;50.092;9.182;2023-08-08T09:19:24;4.90;;;1.40;;
38851;SDS011;24605;50.092;9.182;2023-08-08T09:21:51;4.72;;;1.35;;
38851;SDS011;24605;50.092;9.182;2023-08-08T09:24:18;3.58;;;1.23;;
38851;SDS011;24605;50.092;9.182;2023-08-08T09:26:46;5.15;;;1.33;;
38851;SDS011;24605;50.092;9.182;2023-08-08T09:29:13;6.07;;;1.52;;
38851;SDS011;24605;50.092;9.182;2023-08-08T09:31:40;2.85;;;1.20;;
38851;SDS011;24605;50.092;9.182;2023-08-08T09:34:07;4.75;;;1.30;;
38851;SDS011;24605;50.092;9.182;2023-08-08T09:36:33;3.05;;;1.10;;
38851;SDS011;24605;50.092;9.182;2023-08-08T09:39:01;3.65;;;1.10;;
38851;SDS011;24605;50.092;9.182;2023-08-08T09:41:29;5.53;;;1.30;;
38851;SDS011;24605;50.092;9.182;2023-08-08T09:43:58;4.80;;;1.30;;
38851;SDS011;24605;50.092;9.182;2023-08-08T09:46:25;4.60;;;1.20;;
38851;SDS011;24605;50.092;9.182;2023-08-08T09:48:51;2.85;;;1.35;;
38851;SDS011;24605;50.092;9.182;2023-08-08T09:51:19;4.15;;;1.38;;
38851;SDS011;24605;50.092;9.182;2023-08-08T09:53:47;6.63;;;1.65;;
38851;SDS011;24605;50.092;9.182;2023-08-08T09:56:14;3.50;;;1.42;;
38851;SDS011;24605;50.092;9.182;2023-08-08T09:58:41;4.05;;;1.20;;
38851;SDS011;24605;50.092;9.182;2023-08-08T10:01:10;3.33;;;1.10;;
38851;SDS011;24605;50.092;9.182;2023-08-08T10:03:37;3.08;;;1.25;;
38851;SDS011;24605;50.092;9.182;2023-08-08T10:06:04;4.57;;;1.33;;
38851;SDS011;24605;50.092;9.182;2023-08-08T10:08:31;3.42;;;1.10;;
38851;SDS011;24605;50.092;9.182;2023-08-08T10:10:57;5.18;;;1.33;;
38851;SDS011;24605;50.092;9.182;2023-08-08T10:13:25;3.53;;;1.25;;
38851;SDS011;24605;50.092;9.182;2023-08-08T10:15:52;5.13;;;1.40;;
38851;SDS011;24605;50.092;9.182;2023-08-08T10:18:22;2.25;;;1.02;;
38851;SDS011;24605;50.092;9.182;2023-08-08T10:20:49;6.25;;;1.42;;
38851;SDS011;24605;50.092;9.182;2023-08-08T10:23:18;4.78;;;0.93;;
38851;SDS011;24605;50.092;9.182;2023-08-08T10:25:46;2.83;;;1.13;;
38851;SDS011;24605;50.092;9.182;2023-08-08T10:28:14;3.90;;;1.10;;
38851;SDS011;24605;50.092;9.182;2023-08-08T10:30:43;4.10;;;1.42;;
38851;SDS011;24605;50.092;9.182;2023-08-08T10:33:18;3.10;;;1.10;;
38851;SDS011;24605;50.092;9.182;2023-08-08T10:35:58;2.88;;;1.25;;
38851;SDS011;24605;50.092;9.182;2023-08-08T10:38:26;2.97;;;1.17;;
38851;SDS011;24605;50.092;9.182;2023-08-08T10:40:56;4.47;;;1.30;;
38851;SDS011;24605;50.092;9.182;2023-08-08T10:43:26;4.60;;;1.30;;
38851;SDS011;24605;50.092;9.182;2023-08-08T10:45:56;2.63;;;1.00;;
38851;SDS011;24605;50.092;9.182;2023-08-08T10:48:24;3.55;;;1.30;;
38851;SDS011;24605;50.092;9.182;2023-08-08T10:50:53;3.83;;;0.98;;
38851;SDS011;24605;50.092;9.182;2023-08-08T10:53:23;4.47;;;1.17;;
38851;SDS011;24605;50.092;9.182;2023-08-08T10:55:56;6.35;;;1.40;;
38851;SDS011;24605;50.092;9.182;2023-08-08T10:58:34;5.15;;;1.27;;
38851;SDS011;24605;50.092;9.182;2023-08-08T11:01:01;2.58;;;1.10;;
38851;SDS011;24605;50.092;9.182;2023-08-08T11:03:30;4.75;;;1.15;;
38851;SDS011;24605;50.092;9.182;2023-08-08T11:05:56;4.15;;;1.67;;
38851;SDS011;24605;50.092;9.182;2023-08-08T11:08:24;6.13;;;1.38;;
38851;SDS011;24605;50.092;9.182;2023-08-08T11:10:51;6.78;;;1.30;;
38851;SDS011;24605;50.092;9.182;2023-08-08T11:13:18;5.28;;;1.35;;
38851;SDS011;24605;50.092;9.182;2023-08-08T11:15:45;4.05;;;1.23;;
38851;SDS011;24605;50.092;9.182;2023-08-08T11:18:12;4.55;;;1.20;;
38851;SDS011;24605;50.092;9.182;2023-08-08T11:20:39;3.25;;;1.10;;
38851;SDS011;24605;50.092;9.182;2023-08-08T11:23:06;3.78;;;1.42;;
38851;SDS011;24605;50.092;9.182;2023-08-08T11:25:36;4.72;;;1.45;;
38851;SDS011;24605;50.092;9.182;2023-08-08T11:28:05;3.17;;;1.20;;
38851;SDS011;24605;50.092;9.182;2023-08-08T11:30:33;6.10;;;1.40;;
38851;SDS011;24605;50.092;9.182;2023-08-08T11:33:01;5.50;;;1.85;;
38851;SDS011;24605;50.092;9.182;2023-08-08T11:35:28;5.35;;;1.42;;
38851;SDS011;24605;50.092;9.182;2023-08-08T11:37:56;6.20;;;1.40;;
38851;SDS011;24605;50.092;9.182;2023-08-08T11:40:24;5.65;;;1.20;;
38851;SDS011;24605;50.092;9.182;2023-08-08T11:42:53;2.55;;;1.38;;
38851;SDS011;24605;50.092;9.182;2023-08-08T11:45:20;3.80;;;1.40;;
38851;SDS011;24605;50.092;9.182;2023-08-08T11:47:48;5.28;;;1.20;;
38851;SDS011;24605;50.092;9.182;2023-08-08T11:50:15;4.45;;;1.20;;
38851;SDS011;24605;50.092;9.182;2023-08-08T11:52:43;5.63;;;1.48;;
38851;SDS011;24605;50.092;9.182;2023-08-08T11:55:11;4.80;;;1.25;;
38851;SDS011;24605;50.092;9.182;2023-08-08T11:57:38;4.07;;;1.40;;
38851;SDS011;24605;50.092;9.182;2023-08-08T12:00:08;3.75;;;1.38;;
38851;SDS011;24605;50.092;9.182;2023-08-08T12:02:38;4.15;;;1.40;;
38851;SDS011;24605;50.092;9.182;2023-08-08T12:05:04;3.50;;;1.33;;
38851;SDS011;24605;50.092;9.182;2023-08-08T12:07:31;3.08;;;1.25;;
38851;SDS011;24605;50.092;9.182;2023-08-08T12:09:59;4.13;;;1.50;;
38851;SDS011;24605;50.092;9.182;2023-08-08T12:12:27;5.10;;;1.40;;
38851;SDS011;24605;50.092;9.182;2023-08-08T12:14:56;3.75;;;1.40;;
38851;SDS011;24605;50.092;9.182;2023-08-08T12:17:25;5.55;;;1.55;;
38851;SDS011;24605;50.092;9.182;2023-08-08T12:19:51;6.65;;;1.80;;
38851;SDS011;24605;50.092;9.182;2023-08-08T12:22:18;3.70;;;1.30;;
38851;SDS011;24605;50.092;9.182;2023-08-08T12:24:44;4.43;;;1.80;;
38851;SDS011;24605;50.092;9.182;2023-08-08T12:27:11;3.97;;;1.38;;
38851;SDS011;24605;50.092;9.182;2023-08-08T12:29:37;3.30;;;1.52;;
38851;SDS011;24605;50.092;9.182;2023-08-08T12:32:04;5.38;;;1.50;;
38851;SDS011;24605;50.092;9.182;2023-08-08T12:34:34;6.13;;;1.70;;
38851;SDS011;24605;50.092;9.182;2023-08-08T12:37:00;4.53;;;1.02;;
38851;SDS011;24605;50.092;9.182;2023-08-08T12:39:27;3.40;;;1.40;;
38851;SDS011;24605;50.092;9.182;2023-08-08T12:41:54;7.05;;;1.67;;
38851;SDS011;24605;50.092;9.182;2023-08-08T12:44:20;3.13;;;1.00;;
38851;SDS011;24605;50.092;9.182;2023-08-08T12:46:47;4.28;;;1.25;;
38851;SDS011;24605;50.092;9.182;2023-08-08T12:49:13;4.90;;;1.20;;
38851;SDS011;24605;50.092;9.182;2023-08-08T12:51:41;4.35;;;1.33;;
38851;SDS011;24605;50.092;9.182;2023-08-08T12:54:08;4.93;;;1.58;;
38851;SDS011;24605;50.092;9.182;2023-08-08T12:56:34;5.32;;;1.48;;
38851;SDS011;24605;50.092;9.182;2023-08-08T12:59:01;3.97;;;1.42;;
38851;SDS011;24605;50.092;9.182;2023-08-08T13:01:28;4.40;;;1.42;;
38851;SDS011;24605;50.092;9.182;2023-08-08T13:03:54;8.20;;;1.60;;
38851;SDS011;24605;50.092;9.182;2023-08-08T13:06:21;3.33;;;1.38;;
38851;SDS011;24605;50.092;9.182;2023-08-08T13:08:49;3.65;;;1.23;;
38851;SDS011;24605;50.092;9.182;2023-08-08T13:11:15;4.47;;;1.30;;
38851;SDS011;24605;50.092;9.182;2023-08-08T13:13:41;4.15;;;1.40;;
38851;SDS011;24605;50.092;9.182;2023-08-08T13:16:08;3.88;;;1.20;;
38851;SDS011;24605;50.092;9.182;2023-08-08T13:18:35;5.93;;;1.35;;
38851;SDS011;24605;50.092;9.182;2023-08-08T13:21:02;3.70;;;1.58;;
38851;SDS011;24605;50.092;9.182;2023-08-08T13:23:29;5.07;;;1.50;;
38851;SDS011;24605;50.092;9.182;2023-08-08T13:25:57;5.30;;;1.50;;
38851;SDS011;24605;50.092;9.182;2023-08-08T13:28:23;3.22;;;1.40;;
38851;SDS011;24605;50.092;9.182;2023-08-08T13:30:50;4.85;;;1.52;;
38851;SDS011;24605;50.092;9.182;2023-08-08T13:33:16;2.60;;;1.13;;
38851;SDS011;24605;50.092;9.182;2023-08-08T13:35:43;3.22;;;1.10;;
38851;SDS011;24605;50.092;9.182;2023-08-08T13:38:09;3.22;;;1.30;;
38851;SDS011;24605;50.092;9.182;2023-08-08T13:40:39;4.65;;;1.58;;
38851;SDS011;24605;50.092;9.182;2023-08-08T13:43:07;5.65;;;1.40;;
38851;SDS011;24605;50.092;9.182;2023-08-08T13:45:33;2.67;;;1.17;;
38851;SDS011;24605;50.092;9.182;2023-08-08T13:48:00;6.18;;;1.40;;
38851;SDS011;24605;50.092;9.182;2023-08-08T13:50:26;4.75;;;1.45;;
38851;SDS011;24605;50.092;9.182;2023-08-08T13:52:53;5.25;;;1.30;;
38851;SDS011;24605;50.092;9.182;2023-08-08T13:55:21;8.52;;;1.63;;
38851;SDS011;24605;50.092;9.182;2023-08-08T13:57:47;4.68;;;1.20;;
38851;SDS011;24605;50.092;9.182;2023-08-08T14:00:15;3.28;;;1.10;;
38851;SDS011;24605;50.092;9.182;2023-08-08T14:02:42;5.25;;;1.00;;
38851;SDS011;24605;50.092;9.182;2023-08-08T14:05:08;2.47;;;1.05;;
38851;SDS011;24605;50.092;9.182;2023-08-08T14:07:35;2.38;;;1.02;;
38851;SDS011;24605;50.092;9.182;2023-08-08T14:10:01;4.00;;;1.10;;
38851;SDS011;24605;50.092;9.182;2023-08-08T14:12:29;4.90;;;1.27;;
38851;SDS011;24605;50.092;9.182;2023-08-08T14:14:55;3.70;;;1.30;;
38851;SDS011;24605;50.092;9.182;2023-08-08T14:17:23;4.82;;;1.20;;
38851;SDS011;24605;50.092;9.182;2023-08-08T14:19:50;4.30;;;1.20;;
38851;SDS011;24605;50.092;9.182;2023-08-08T14:22:16;3.47;;;1.13;;
38851;SDS011;24605;50.092;9.182;2023-08-08T14:24:43;3.28;;;1.08;;
38851;SDS011;24605;50.092;9.182;2023-08-08T14:27:10;4.90;;;1.23;;
38851;SDS011;24605;50.092;9.182;2023-08-08T14:29:36;2.50;;;1.10;;
38851;SDS011;24605;50.092;9.182;2023-08-08T14:32:03;3.00;;;1.08;;
38851;SDS011;24605;50.092;9.182;2023-08-08T14:34:31;4.40;;;1.30;;
38851;SDS011;24605;50.092;9.182;2023-08-08T14:36:59;5.85;;;1.10;;
38851;SDS011;24605;50.092;9.182;2023-08-08T14:39:26;3.38;;;1.20;;
38851;SDS011;24605;50.092;9.182;2023-08-08T14:41:53;5.95;;;1.35;;
38851;SDS011;24605;50.092;9.182;2023-08-08T14:44:19;3.60;;;1.20;;
38851;SDS011;24605;50.092;9.182;2023-08-08T14:46:46;5.43;;;1.70;;